»·PEaware :: N80VJ KCMA-KSNA

N80VJ :: KCMA-KSNA

FLIGHT INFORMATION

Flight Status: Arrived
Operator: Privately registered:
United States
More flights under this callsign
Pilot: Christopher S. (28961)
Aircraft: CIRRUS SR-20
(SR20)
More flights by this aircraft type
Origin: KCMA Camarillo
United States
Destination: KSNA John Wayne-Orange Co
United States
More flights between these airports :: More routes between these airports
Route: LAX
File this flight plan on PilotEdge
Remarks: Costal rout
Altitude:
(Current/Filed)
5,500ft
Speed:
(Current/Filed)
145kts
Departed: 13-Jan-21 01:25 PM
Arrived: 13-Jan-21 02:11 PM
Distance/Time
Traveled:
69nm/0:46
Distance/Time
To Go:
Arrived

Flight Plot

Page will automatically refresh every two minutes.

Flight plan parsing failed; only flown route is shown


Map Options




Map Legend


Flown Route
Filed Route
Departure Airport
Arrival Airport
Navaid (VOR, NDB)
Fix

Horizontal Profiles

Position Reports

Time Latitude Longitude Heading Altitude Ground
Speed
13-Jan-21 13:06 34.210775 -119.094842 359 66ft 0kts
13-Jan-21 13:07 34.210775 -119.094842 359 66ft 0kts
13-Jan-21 13:08 34.210775 -119.094842 359 66ft 0kts
13-Jan-21 13:09 34.210775 -119.094842 359 66ft 0kts
13-Jan-21 13:10 34.210775 -119.094842 359 66ft 0kts
13-Jan-21 13:11 34.210775 -119.094842 359 66ft 0kts
13-Jan-21 13:12 34.210775 -119.094842 359 66ft 0kts
13-Jan-21 13:13 34.210955 -119.094101 75 67ft 7kts
13-Jan-21 13:14 34.210969 -119.089303 90 72ft 19kts
13-Jan-21 13:15 34.211192 -119.084641 20 77ft 9kts
13-Jan-21 13:16 34.212424 -119.084497 292 79ft 0kts
13-Jan-21 13:17 34.212424 -119.084497 292 79ft 0kts
13-Jan-21 13:18 34.212424 -119.084497 292 79ft 0kts
13-Jan-21 13:19 34.212424 -119.084497 292 79ft 0kts
13-Jan-21 13:20 34.212424 -119.084497 292 79ft 0kts
13-Jan-21 13:21 34.212424 -119.084497 292 79ft 0kts
13-Jan-21 13:22 34.212742 -119.084624 357 79ft 0kts
13-Jan-21 13:23 34.213724 -119.085449 272 79ft 29kts
13-Jan-21 13:24 34.207649 -119.109799 183 969ft 104kts
13-Jan-21 13:25 34.197624 -119.076271 90 2092ft 115kts
13-Jan-21 13:26 34.196006 -119.037083 90 3181ft 118kts
13-Jan-21 13:27 34.193931 -118.997032 90 4211ft 120kts
13-Jan-21 13:28 34.191251 -118.956813 90 5172ft 119kts
13-Jan-21 13:29 34.190101 -118.912077 77 5555ft 147kts
13-Jan-21 13:30 34.195915 -118.861734 77 5541ft 152kts
13-Jan-21 13:31 34.202532 -118.811925 75 5535ft 143kts
13-Jan-21 13:32 34.209348 -118.764839 75 5537ft 141kts
13-Jan-21 13:33 34.215613 -118.718264 84 5535ft 139kts
13-Jan-21 13:34 34.216595 -118.670730 84 5536ft 137kts
13-Jan-21 13:35 34.217929 -118.625139 84 5536ft 135kts
13-Jan-21 13:36 34.220084 -118.579520 82 5536ft 133kts
13-Jan-21 13:37 34.191641 -118.554288 158 5532ft 135kts
13-Jan-21 13:38 34.159739 -118.541200 155 5528ft 111kts
13-Jan-21 13:39 34.129542 -118.527334 154 5564ft 133kts
13-Jan-21 13:40 34.092825 -118.509815 154 5547ft 145kts
13-Jan-21 13:42 34.054982 -118.491424 154 5545ft 147kts
13-Jan-21 13:43 34.016494 -118.472572 154 5545ft 147kts
13-Jan-21 13:44 33.977053 -118.453207 154 5545ft 147kts
13-Jan-21 13:45 33.939007 -118.434519 154 5545ft 147kts
13-Jan-21 13:46 33.905254 -118.402448 124 5547ft 144kts
13-Jan-21 13:47 33.874124 -118.367085 134 5547ft 146kts
13-Jan-21 13:48 33.843132 -118.333652 135 5549ft 147kts
13-Jan-21 13:49 33.812053 -118.300080 135 5550ft 148kts
13-Jan-21 13:50 33.781120 -118.266549 135 5551ft 148kts
13-Jan-21 13:51 33.749959 -118.232728 135 5551ft 148kts
13-Jan-21 13:52 33.721494 -118.196932 118 5551ft 146kts
13-Jan-21 13:53 33.713081 -118.150079 94 5539ft 132kts
13-Jan-21 13:54 33.707703 -118.107916 95 5544ft 120kts
13-Jan-21 13:55 33.702299 -118.067108 95 5545ft 119kts
13-Jan-21 13:56 33.679821 -118.042823 210 4915ft 136kts
13-Jan-21 13:57 33.687307 -118.066263 30 4725ft 89kts
13-Jan-21 13:58 33.676171 -118.041439 174 4176ft 118kts
13-Jan-21 13:58 33.651092 -118.057265 198 3682ft 123kts
13-Jan-21 14:00 33.617716 -118.031464 137 2973ft 123kts
13-Jan-21 14:01 33.607111 -117.996308 59 2356ft 119kts
13-Jan-21 14:02 33.633226 -117.971849 24 1783ft 116kts
13-Jan-21 14:02 33.658376 -117.962946 11 1553ft 111kts
13-Jan-21 14:03 33.690379 -117.954806 11 1287ft 125kts
13-Jan-21 14:05 33.730942 -117.942208 42 1004ft 127kts
13-Jan-21 14:05 33.751201 -117.917442 54 1009ft 122kts
13-Jan-21 14:06 33.745349 -117.878025 106 1016ft 122kts
13-Jan-21 14:07 33.730295 -117.841909 145 1016ft 122kts
13-Jan-21 14:08 33.701121 -117.852392 209 896ft 97kts
13-Jan-21 14:09 33.678783 -117.866866 208 64ft 65kts
13-Jan-21 14:10 33.674247 -117.870966 304 59ft 1kts
13-Jan-21 14:11 33.674267 -117.870992 311 59ft 3kts
13-Jan-21 14:12 33.672711 -117.873137 223 59ft 0kts

Navigation Log

Ident Type
Flight plan parsing failed, navigation log unavailable